sensor_id;sensor_type;location;lat;lon;timestamp;pressure;altitude;pressure_sealevel;temperature;humidity
19831;BME280;10076;52.008;4.708;2023-03-13T00:01:25;100166.78;;;11.29;100.00
19831;BME280;10076;52.008;4.708;2023-03-13T00:03:51;100159.94;;;11.27;100.00
19831;BME280;10076;52.008;4.708;2023-03-13T00:06:17;100159.19;;;11.36;100.00
19831;BME280;10076;52.008;4.708;2023-03-13T00:08:44;100153.00;;;11.26;100.00
19831;BME280;10076;52.008;4.708;2023-03-13T00:11:12;100144.94;;;11.27;100.00
19831;BME280;10076;52.008;4.708;2023-03-13T00:13:37;100138.75;;;11.38;100.00
19831;BME280;10076;52.008;4.708;2023-03-13T00:16:06;100124.84;;;11.36;100.00
19831;BME280;10076;52.008;4.708;2023-03-13T00:18:32;100122.50;;;11.42;100.00
19831;BME280;10076;52.008;4.708;2023-03-13T00:21:03;100119.28;;;11.39;100.00
19831;BME280;10076;52.008;4.708;2023-03-13T00:23:28;100103.69;;;11.36;100.00
19831;BME280;10076;52.008;4.708;2023-03-13T00:26:03;100101.03;;;11.36;100.00
19831;BME280;10076;52.008;4.708;2023-03-13T00:28:30;100086.78;;;11.48;100.00
19831;BME280;10076;52.008;4.708;2023-03-13T00:31:03;100084.28;;;11.46;100.00
19831;BME280;10076;52.008;4.708;2023-03-13T00:33:30;100076.69;;;11.53;100.00
19831;BME280;10076;52.008;4.708;2023-03-13T00:36:00;100070.88;;;11.38;100.00
19831;BME280;10076;52.008;4.708;2023-03-13T00:38:27;100076.88;;;11.40;100.00
19831;BME280;10076;52.008;4.708;2023-03-13T00:41:04;100065.00;;;11.35;100.00
19831;BME280;10076;52.008;4.708;2023-03-13T00:43:30;100050.03;;;11.45;100.00
19831;BME280;10076;52.008;4.708;2023-03-13T00:45:55;100050.44;;;11.40;100.00
19831;BME280;10076;52.008;4.708;2023-03-13T00:48:21;100046.16;;;11.49;100.00
19831;BME280;10076;52.008;4.708;2023-03-13T00:50:47;100034.94;;;11.56;100.00
19831;BME280;10076;52.008;4.708;2023-03-13T00:53:12;100025.72;;;11.51;100.00
19831;BME280;10076;52.008;4.708;2023-03-13T00:55:38;100024.66;;;11.63;100.00
19831;BME280;10076;52.008;4.708;2023-03-13T00:58:03;100017.72;;;11.41;100.00
19831;BME280;10076;52.008;4.708;2023-03-13T01:00:28;100013.09;;;11.54;100.00
19831;BME280;10076;52.008;4.708;2023-03-13T01:02:54;100015.34;;;11.59;100.00
19831;BME280;10076;52.008;4.708;2023-03-13T01:05:19;100011.09;;;11.47;100.00
19831;BME280;10076;52.008;4.708;2023-03-13T01:07:44;99994.25;;;11.48;100.00
19831;BME280;10076;52.008;4.708;2023-03-13T01:10:10;100003.09;;;11.58;100.00
19831;BME280;10076;52.008;4.708;2023-03-13T01:12:35;99988.78;;;11.70;100.00
19831;BME280;10076;52.008;4.708;2023-03-13T01:15:00;99979.16;;;11.69;100.00
19831;BME280;10076;52.008;4.708;2023-03-13T01:17:26;99979.47;;;11.66;100.00
19831;BME280;10076;52.008;4.708;2023-03-13T01:19:54;99985.16;;;11.71;100.00
19831;BME280;10076;52.008;4.708;2023-03-13T01:22:20;99967.78;;;11.68;100.00
19831;BME280;10076;52.008;4.708;2023-03-13T01:24:45;99970.97;;;11.72;100.00
19831;BME280;10076;52.008;4.708;2023-03-13T01:27:14;99963.31;;;11.69;100.00
19831;BME280;10076;52.008;4.708;2023-03-13T01:29:39;99943.00;;;11.78;100.00
19831;BME280;10076;52.008;4.708;2023-03-13T01:32:05;99949.69;;;11.82;100.00
19831;BME280;10076;52.008;4.708;2023-03-13T01:34:30;99948.56;;;11.75;100.00
19831;BME280;10076;52.008;4.708;2023-03-13T01:36:55;99962.09;;;11.91;100.00
19831;BME280;10076;52.008;4.708;2023-03-13T01:39:21;99940.22;;;11.99;100.00
19831;BME280;10076;52.008;4.708;2023-03-13T01:41:46;99933.13;;;11.90;100.00
19831;BME280;10076;52.008;4.708;2023-03-13T01:44:24;99934.41;;;11.95;100.00
19831;BME280;10076;52.008;4.708;2023-03-13T01:46:50;99920.47;;;11.93;100.00
19831;BME280;10076;52.008;4.708;2023-03-13T01:49:22;99921.59;;;12.00;100.00
19831;BME280;10076;52.008;4.708;2023-03-13T01:51:54;99906.84;;;12.07;100.00
19831;BME280;10076;52.008;4.708;2023-03-13T01:54:27;99915.44;;;12.09;100.00
19831;BME280;10076;52.008;4.708;2023-03-13T01:59:34;99893.47;;;12.09;100.00
19831;BME280;10076;52.008;4.708;2023-03-13T02:02:02;99881.19;;;12.17;100.00
19831;BME280;10076;52.008;4.708;2023-03-13T02:04:32;99878.81;;;12.14;100.00
19831;BME280;10076;52.008;4.708;2023-03-13T02:07:02;99878.81;;;12.14;100.00
19831;BME280;10076;52.008;4.708;2023-03-13T02:09:30;99872.53;;;12.25;100.00
19831;BME280;10076;52.008;4.708;2023-03-13T02:12:08;99867.25;;;12.25;100.00
19831;BME280;10076;52.008;4.708;2023-03-13T02:14:37;99864.75;;;12.23;100.00
19831;BME280;10076;52.008;4.708;2023-03-13T02:17:04;99850.81;;;12.31;100.00
19831;BME280;10076;52.008;4.708;2023-03-13T02:19:43;99851.59;;;12.40;100.00
19831;BME280;10076;52.008;4.708;2023-03-13T02:27:28;99846.59;;;12.47;100.00
19831;BME280;10076;52.008;4.708;2023-03-13T02:29:53;99857.56;;;12.52;100.00
19831;BME280;10076;52.008;4.708;2023-03-13T02:32:19;99842.66;;;12.51;100.00
19831;BME280;10076;52.008;4.708;2023-03-13T02:34:46;99841.53;;;12.53;100.00
19831;BME280;10076;52.008;4.708;2023-03-13T02:37:13;99846.03;;;12.43;100.00
19831;BME280;10076;52.008;4.708;2023-03-13T02:39:42;99844.50;;;12.50;100.00
19831;BME280;10076;52.008;4.708;2023-03-13T02:42:10;99855.59;;;12.54;100.00
19831;BME280;10076;52.008;4.708;2023-03-13T02:44:38;99839.56;;;12.65;100.00
19831;BME280;10076;52.008;4.708;2023-03-13T02:47:03;99856.31;;;12.56;100.00
19831;BME280;10076;52.008;4.708;2023-03-13T02:49:29;99848.75;;;12.61;100.00
19831;BME280;10076;52.008;4.708;2023-03-13T02:51:57;99857.25;;;12.64;100.00
19831;BME280;10076;52.008;4.708;2023-03-13T02:54:30;99846.50;;;12.66;100.00
19831;BME280;10076;52.008;4.708;2023-03-13T02:56:59;99856.44;;;12.64;100.00
19831;BME280;10076;52.008;4.708;2023-03-13T02:59:26;99837.59;;;12.67;100.00
19831;BME280;10076;52.008;4.708;2023-03-13T03:01:51;99831.91;;;12.62;100.00
19831;BME280;10076;52.008;4.708;2023-03-13T03:04:21;99881.47;;;12.69;100.00
19831;BME280;10076;52.008;4.708;2023-03-13T03:06:47;99831.16;;;12.69;100.00
19831;BME280;10076;52.008;4.708;2023-03-13T03:09:13;99812.44;;;12.80;100.00
19831;BME280;10076;52.008;4.708;2023-03-13T03:11:39;99796.25;;;12.83;100.00
19831;BME280;10076;52.008;4.708;2023-03-13T03:14:04;99803.34;;;12.83;100.00
19831;BME280;10076;52.008;4.708;2023-03-13T03:16:30;99795.94;;;12.96;100.00
19831;BME280;10076;52.008;4.708;2023-03-13T03:18:55;99807.50;;;12.95;100.00
19831;BME280;10076;52.008;4.708;2023-03-13T03:21:20;99795.78;;;12.97;100.00
19831;BME280;10076;52.008;4.708;2023-03-13T03:23:48;99800.25;;;12.97;100.00
19831;BME280;10076;52.008;4.708;2023-03-13T03:26:14;99796.69;;;13.06;100.00
19831;BME280;10076;52.008;4.708;2023-03-13T03:28:39;99802.00;;;13.06;100.00
19831;BME280;10076;52.008;4.708;2023-03-13T03:31:06;99801.41;;;13.11;100.00
19831;BME280;10076;52.008;4.708;2023-03-13T03:33:32;99797.66;;;13.14;100.00
19831;BME280;10076;52.008;4.708;2023-03-13T03:36:09;99789.69;;;13.14;100.00
19831;BME280;10076;52.008;4.708;2023-03-13T03:38:35;99803.63;;;13.16;100.00
19831;BME280;10076;52.008;4.708;2023-03-13T03:41:01;99796.41;;;13.09;100.00
19831;BME280;10076;52.008;4.708;2023-03-13T03:43:27;99790.97;;;13.10;100.00
19831;BME280;10076;52.008;4.708;2023-03-13T03:45:52;99800.03;;;13.08;100.00
19831;BME280;10076;52.008;4.708;2023-03-13T03:48:17;99779.91;;;13.14;100.00
19831;BME280;10076;52.008;4.708;2023-03-13T03:50:43;99780.63;;;13.16;100.00
19831;BME280;10076;52.008;4.708;2023-03-13T03:53:08;99780.69;;;13.24;100.00
19831;BME280;10076;52.008;4.708;2023-03-13T03:55:34;99784.91;;;13.17;100.00
19831;BME280;10076;52.008;4.708;2023-03-13T03:57:59;99784.53;;;13.12;100.00
19831;BME280;10076;52.008;4.708;2023-03-13T04:00:25;99775.50;;;13.06;100.00
19831;BME280;10076;52.008;4.708;2023-03-13T04:02:52;99772.84;;;13.06;100.00
19831;BME280;10076;52.008;4.708;2023-03-13T04:05:17;99763.84;;;12.99;100.00
19831;BME280;10076;52.008;4.708;2023-03-13T04:07:42;99769.59;;;13.11;100.00
19831;BME280;10076;52.008;4.708;2023-03-13T04:10:08;99774.22;;;13.10;100.00
19831;BME280;10076;52.008;4.708;2023-03-13T04:12:34;99772.34;;;13.19;100.00
19831;BME280;10076;52.008;4.708;2023-03-13T04:14:59;99768.09;;;13.09;100.00
19831;BME280;10076;52.008;4.708;2023-03-13T04:17:24;99765.22;;;13.20;100.00
19831;BME280;10076;52.008;4.708;2023-03-13T04:19:50;99755.91;;;13.16;100.00
19831;BME280;10076;52.008;4.708;2023-03-13T04:22:15;99761.13;;;13.08;100.00
19831;BME280;10076;52.008;4.708;2023-03-13T04:24:40;99761.91;;;13.18;100.00
19831;BME280;10076;52.008;4.708;2023-03-13T04:27:06;99766.06;;;13.20;100.00
19831;BME280;10076;52.008;4.708;2023-03-13T04:29:32;99757.50;;;13.26;100.00
19831;BME280;10076;52.008;4.708;2023-03-13T04:31:57;99748.81;;;13.16;100.00
19831;BME280;10076;52.008;4.708;2023-03-13T04:34:23;99744.69;;;13.22;100.00
19831;BME280;10076;52.008;4.708;2023-03-13T04:36:48;99751.47;;;13.16;100.00
19831;BME280;10076;52.008;4.708;2023-03-13T04:39:14;99735.94;;;13.21;100.00
19831;BME280;10076;52.008;4.708;2023-03-13T04:41:39;99744.47;;;13.15;100.00
19831;BME280;10076;52.008;4.708;2023-03-13T04:44:05;99748.88;;;13.24;100.00
19831;BME280;10076;52.008;4.708;2023-03-13T04:46:30;99757.41;;;13.18;100.00
19831;BME280;10076;52.008;4.708;2023-03-13T04:48:56;99749.19;;;13.21;100.00
19831;BME280;10076;52.008;4.708;2023-03-13T04:51:21;99744.16;;;13.18;100.00
19831;BME280;10076;52.008;4.708;2023-03-13T04:53:46;99727.97;;;13.21;100.00
19831;BME280;10076;52.008;4.708;2023-03-13T04:56:20;99728.78;;;13.22;100.00
19831;BME280;10076;52.008;4.708;2023-03-13T04:58:46;99725.69;;;13.26;100.00
19831;BME280;10076;52.008;4.708;2023-03-13T05:01:11;99723.41;;;13.31;100.00
19831;BME280;10076;52.008;4.708;2023-03-13T05:03:36;99716.38;;;13.40;100.00
19831;BME280;10076;52.008;4.708;2023-03-13T05:06:02;99714.53;;;13.40;100.00
19831;BME280;10076;52.008;4.708;2023-03-13T05:08:27;99699.84;;;13.46;100.00
19831;BME280;10076;52.008;4.708;2023-03-13T05:10:52;99697.81;;;13.57;100.00
19831;BME280;10076;52.008;4.708;2023-03-13T05:13:18;99690.88;;;13.64;100.00
19831;BME280;10076;52.008;4.708;2023-03-13T05:15:43;99682.91;;;13.64;100.00
19831;BME280;10076;52.008;4.708;2023-03-13T05:18:08;99687.91;;;13.67;100.00
19831;BME280;10076;52.008;4.708;2023-03-13T05:20:33;99677.31;;;13.67;100.00
19831;BME280;10076;52.008;4.708;2023-03-13T05:22:59;99668.38;;;13.68;100.00
19831;BME280;10076;52.008;4.708;2023-03-13T05:25:24;99663.72;;;13.70;100.00
19831;BME280;10076;52.008;4.708;2023-03-13T05:27:49;99662.53;;;13.65;100.00
19831;BME280;10076;52.008;4.708;2023-03-13T05:30:15;99672.81;;;13.68;100.00
19831;BME280;10076;52.008;4.708;2023-03-13T05:32:40;99667.84;;;13.65;100.00
19831;BME280;10076;52.008;4.708;2023-03-13T05:35:06;99655.75;;;13.70;100.00
19831;BME280;10076;52.008;4.708;2023-03-13T05:37:31;99657.44;;;13.71;100.00
19831;BME280;10076;52.008;4.708;2023-03-13T05:39:56;99651.50;;;13.77;100.00
19831;BME280;10076;52.008;4.708;2023-03-13T05:42:21;99642.22;;;13.81;100.00
19831;BME280;10076;52.008;4.708;2023-03-13T05:44:47;99643.03;;;13.74;100.00
19831;BME280;10076;52.008;4.708;2023-03-13T05:47:12;99613.44;;;13.86;100.00
19831;BME280;10076;52.008;4.708;2023-03-13T05:49:37;99627.16;;;13.81;100.00
19831;BME280;10076;52.008;4.708;2023-03-13T05:52:03;99621.38;;;13.86;100.00
19831;BME280;10076;52.008;4.708;2023-03-13T05:54:28;99617.88;;;13.85;100.00
19831;BME280;10076;52.008;4.708;2023-03-13T05:56:54;99626.06;;;13.92;100.00
19831;BME280;10076;52.008;4.708;2023-03-13T05:59:19;99612.81;;;14.00;100.00
19831;BME280;10076;52.008;4.708;2023-03-13T06:01:44;99620.53;;;13.85;100.00
19831;BME280;10076;52.008;4.708;2023-03-13T06:04:10;99619.72;;;13.85;100.00
19831;BME280;10076;52.008;4.708;2023-03-13T06:06:35;99629.19;;;13.95;100.00
19831;BME280;10076;52.008;4.708;2023-03-13T06:09:00;99625.91;;;13.93;100.00
19831;BME280;10076;52.008;4.708;2023-03-13T06:11:25;99641.31;;;13.90;100.00
19831;BME280;10076;52.008;4.708;2023-03-13T06:13:51;99631.84;;;13.87;100.00
19831;BME280;10076;52.008;4.708;2023-03-13T06:16:17;99634.22;;;13.98;100.00
19831;BME280;10076;52.008;4.708;2023-03-13T06:18:42;99660.84;;;13.89;100.00
19831;BME280;10076;52.008;4.708;2023-03-13T06:21:08;99638.94;;;13.87;100.00
19831;BME280;10076;52.008;4.708;2023-03-13T06:23:34;99626.53;;;13.87;100.00
19831;BME280;10076;52.008;4.708;2023-03-13T06:25:59;99634.66;;;13.86;100.00
19831;BME280;10076;52.008;4.708;2023-03-13T06:28:25;99644.22;;;13.79;100.00
19831;BME280;10076;52.008;4.708;2023-03-13T06:30:50;99650.78;;;13.67;100.00
19831;BME280;10076;52.008;4.708;2023-03-13T06:33:16;99647.41;;;13.57;100.00
19831;BME280;10076;52.008;4.708;2023-03-13T06:35:42;99647.00;;;13.52;100.00
19831;BME280;10076;52.008;4.708;2023-03-13T06:38:08;99644.50;;;13.43;100.00
19831;BME280;10076;52.008;4.708;2023-03-13T06:40:34;99642.50;;;13.45;100.00
19831;BME280;10076;52.008;4.708;2023-03-13T06:43:00;99658.56;;;13.43;100.00
19831;BME280;10076;52.008;4.708;2023-03-13T06:45:25;99665.50;;;13.19;100.00
19831;BME280;10076;52.008;4.708;2023-03-13T06:47:50;99667.00;;;13.21;100.00
19831;BME280;10076;52.008;4.708;2023-03-13T06:50:16;99663.59;;;13.11;100.00
19831;BME280;10076;52.008;4.708;2023-03-13T06:52:42;99665.59;;;13.10;100.00
19831;BME280;10076;52.008;4.708;2023-03-13T06:55:07;99663.69;;;13.02;100.00
19831;BME280;10076;52.008;4.708;2023-03-13T06:57:33;99664.50;;;13.03;100.00
19831;BME280;10076;52.008;4.708;2023-03-13T06:59:58;99668.59;;;12.97;100.00
19831;BME280;10076;52.008;4.708;2023-03-13T07:02:24;99660.50;;;12.99;100.00
19831;BME280;10076;52.008;4.708;2023-03-13T07:04:49;99679.72;;;13.01;100.00
19831;BME280;10076;52.008;4.708;2023-03-13T07:07:15;99657.25;;;13.05;100.00
19831;BME280;10076;52.008;4.708;2023-03-13T07:09:40;99664.88;;;13.08;100.00
19831;BME280;10076;52.008;4.708;2023-03-13T07:12:06;99653.00;;;12.94;100.00
19831;BME280;10076;52.008;4.708;2023-03-13T07:14:31;99651.44;;;13.01;100.00
19831;BME280;10076;52.008;4.708;2023-03-13T07:16:57;99662.56;;;13.05;100.00
19831;BME280;10076;52.008;4.708;2023-03-13T07:19:23;99659.53;;;13.00;100.00
19831;BME280;10076;52.008;4.708;2023-03-13T07:21:48;99668.16;;;13.02;100.00
19831;BME280;10076;52.008;4.708;2023-03-13T07:24:13;99662.31;;;12.98;100.00
19831;BME280;10076;52.008;4.708;2023-03-13T07:26:39;99655.34;;;12.97;100.00
19831;BME280;10076;52.008;4.708;2023-03-13T07:29:04;99674.94;;;13.04;100.00
19831;BME280;10076;52.008;4.708;2023-03-13T07:31:29;99675.44;;;13.00;100.00
19831;BME280;10076;52.008;4.708;2023-03-13T07:33:58;99681.00;;;12.97;100.00
19831;BME280;10076;52.008;4.708;2023-03-13T07:36:24;99669.44;;;12.98;100.00
19831;BME280;10076;52.008;4.708;2023-03-13T07:38:49;99675.56;;;12.98;100.00
19831;BME280;10076;52.008;4.708;2023-03-13T07:41:15;99666.47;;;13.01;100.00
19831;BME280;10076;52.008;4.708;2023-03-13T07:43:41;99683.59;;;13.06;100.00
19831;BME280;10076;52.008;4.708;2023-03-13T07:46:08;99698.34;;;13.09;100.00
19831;BME280;10076;52.008;4.708;2023-03-13T07:48:37;99665.25;;;13.12;100.00
19831;BME280;10076;52.008;4.708;2023-03-13T07:51:04;99669.06;;;13.27;100.00
19831;BME280;10076;52.008;4.708;2023-03-13T07:53:30;99667.06;;;13.29;100.00
19831;BME280;10076;52.008;4.708;2023-03-13T07:56:00;99644.63;;;13.41;100.00
19831;BME280;10076;52.008;4.708;2023-03-13T07:58:29;99638.84;;;13.46;100.00
19831;BME280;10076;52.008;4.708;2023-03-13T08:00:55;99662.28;;;13.50;100.00
19831;BME280;10076;52.008;4.708;2023-03-13T08:03:21;99651.56;;;13.60;100.00
19831;BME280;10076;52.008;4.708;2023-03-13T08:05:46;99659.47;;;13.52;100.00
19831;BME280;10076;52.008;4.708;2023-03-13T08:08:12;99659.63;;;13.50;100.00
19831;BME280;10076;52.008;4.708;2023-03-13T08:10:37;99661.31;;;13.59;100.00
19831;BME280;10076;52.008;4.708;2023-03-13T08:13:03;99643.00;;;13.66;100.00
19831;BME280;10076;52.008;4.708;2023-03-13T08:15:28;99650.69;;;13.77;100.00
19831;BME280;10076;52.008;4.708;2023-03-13T08:17:54;99649.13;;;13.66;100.00
19831;BME280;10076;52.008;4.708;2023-03-13T08:20:20;99661.94;;;13.78;100.00
19831;BME280;10076;52.008;4.708;2023-03-13T08:22:46;99642.41;;;13.79;100.00
19831;BME280;10076;52.008;4.708;2023-03-13T08:25:12;99604.72;;;13.76;100.00
19831;BME280;10076;52.008;4.708;2023-03-13T08:27:38;99638.03;;;13.71;100.00
19831;BME280;10076;52.008;4.708;2023-03-13T08:30:06;99630.81;;;13.55;100.00
19831;BME280;10076;52.008;4.708;2023-03-13T08:32:33;99628.09;;;13.47;100.00
19831;BME280;10076;52.008;4.708;2023-03-13T08:34:58;99636.72;;;13.49;100.00
19831;BME280;10076;52.008;4.708;2023-03-13T08:37:23;99618.84;;;13.51;100.00
19831;BME280;10076;52.008;4.708;2023-03-13T08:39:49;99623.66;;;13.56;100.00
19831;BME280;10076;52.008;4.708;2023-03-13T08:42:14;99635.50;;;13.61;100.00
19831;BME280;10076;52.008;4.708;2023-03-13T08:44:42;99636.72;;;13.75;100.00
19831;BME280;10076;52.008;4.708;2023-03-13T08:47:08;99617.88;;;13.85;100.00
19831;BME280;10076;52.008;4.708;2023-03-13T08:49:33;99609.81;;;13.95;100.00
19831;BME280;10076;52.008;4.708;2023-03-13T08:52:03;99598.97;;;14.14;100.00
19831;BME280;10076;52.008;4.708;2023-03-13T08:54:28;99605.03;;;14.32;100.00
19831;BME280;10076;52.008;4.708;2023-03-13T08:56:54;99588.44;;;14.38;100.00
19831;BME280;10076;52.008;4.708;2023-03-13T08:59:19;99584.16;;;14.52;100.00
19831;BME280;10076;52.008;4.708;2023-03-13T09:01:47;99583.19;;;14.69;100.00
19831;BME280;10076;52.008;4.708;2023-03-13T09:04:13;99569.56;;;14.96;100.00
19831;BME280;10076;52.008;4.708;2023-03-13T09:06:38;99552.28;;;15.16;100.00
19831;BME280;10076;52.008;4.708;2023-03-13T09:09:04;99553.09;;;15.48;100.00
19831;BME280;10076;52.008;4.708;2023-03-13T09:11:30;99563.75;;;15.94;100.00
19831;BME280;10076;52.008;4.708;2023-03-13T09:13:56;99542.53;;;16.09;100.00
19831;BME280;10076;52.008;4.708;2023-03-13T09:16:25;99542.78;;;15.99;100.00
19831;BME280;10076;52.008;4.708;2023-03-13T09:18:54;99534.53;;;15.79;100.00
19831;BME280;10076;52.008;4.708;2023-03-13T09:21:22;99529.59;;;15.68;100.00
19831;BME280;10076;52.008;4.708;2023-03-13T09:23:49;99535.97;;;15.51;100.00
19831;BME280;10076;52.008;4.708;2023-03-13T09:26:15;99547.78;;;15.94;100.00
19831;BME280;10076;52.008;4.708;2023-03-13T09:28:41;99526.31;;;16.34;100.00
19831;BME280;10076;52.008;4.708;2023-03-13T09:31:12;99517.50;;;16.26;100.00
19831;BME280;10076;52.008;4.708;2023-03-13T09:33:39;99520.66;;;16.29;100.00
19831;BME280;10076;52.008;4.708;2023-03-13T09:36:05;99509.63;;;16.40;100.00
19831;BME280;10076;52.008;4.708;2023-03-13T09:38:31;99501.38;;;16.19;100.00
19831;BME280;10076;52.008;4.708;2023-03-13T09:41:03;99505.41;;;15.85;100.00
19831;BME280;10076;52.008;4.708;2023-03-13T09:48:50;99479.94;;;17.17;100.00
19831;BME280;10076;52.008;4.708;2023-03-13T09:51:20;99485.59;;;16.85;100.00
19831;BME280;10076;52.008;4.708;2023-03-13T09:54:07;99496.56;;;17.27;100.00
19831;BME280;10076;52.008;4.708;2023-03-13T09:56:39;99464.31;;;16.62;100.00
19831;BME280;10076;52.008;4.708;2023-03-13T10:02:35;99480.53;;;17.12;100.00
19831;BME280;10076;52.008;4.708;2023-03-13T10:05:05;99483.16;;;16.61;100.00
19831;BME280;10076;52.008;4.708;2023-03-13T10:07:31;99481.72;;;16.28;100.00
19831;BME280;10076;52.008;4.708;2023-03-13T10:09:59;99465.06;;;16.26;100.00
19831;BME280;10076;52.008;4.708;2023-03-13T10:12:28;99464.38;;;16.91;100.00
19831;BME280;10076;52.008;4.708;2023-03-13T10:15:04;99463.72;;;18.19;100.00
19831;BME280;10076;52.008;4.708;2023-03-13T10:17:38;99451.72;;;18.98;100.00
19831;BME280;10076;52.008;4.708;2023-03-13T10:22:40;99448.72;;;19.35;100.00
19831;BME280;10076;52.008;4.708;2023-03-13T10:25:18;99459.34;;;18.32;100.00
19831;BME280;10076;52.008;4.708;2023-03-13T10:27:50;99459.84;;;17.57;100.00
19831;BME280;10076;52.008;4.708;2023-03-13T10:30:35;99460.94;;;17.20;100.00
19831;BME280;10076;52.008;4.708;2023-03-13T10:35:35;99449.44;;;17.33;100.00
19831;BME280;10076;52.008;4.708;2023-03-13T10:38:18;99459.19;;;17.84;100.00
19831;BME280;10076;52.008;4.708;2023-03-13T10:40:55;99441.66;;;18.79;100.00
19831;BME280;10076;52.008;4.708;2023-03-13T10:43:24;99447.09;;;19.81;100.00
19831;BME280;10076;52.008;4.708;2023-03-13T10:45:51;99471.63;;;19.91;100.00
19831;BME280;10076;52.008;4.708;2023-03-13T10:48:39;99448.75;;;19.14;100.00
19831;BME280;10076;52.008;4.708;2023-03-13T10:51:19;99452.59;;;19.73;100.00
19831;BME280;10076;52.008;4.708;2023-03-13T10:53:45;99429.56;;;19.85;100.00
19831;BME280;10076;52.008;4.708;2023-03-13T10:56:12;99433.25;;;20.43;100.00
19831;BME280;10076;52.008;4.708;2023-03-13T10:58:49;99427.91;;;20.50;100.00
19831;BME280;10076;52.008;4.708;2023-03-13T11:03:50;99426.44;;;21.18;100.00
19831;BME280;10076;52.008;4.708;2023-03-13T11:06:32;99449.56;;;21.45;100.00
19831;BME280;10076;52.008;4.708;2023-03-13T11:09:03;99424.72;;;21.50;100.00
19831;BME280;10076;52.008;4.708;2023-03-13T11:11:28;99434.94;;;20.70;100.00
19831;BME280;10076;52.008;4.708;2023-03-13T11:14:07;99432.94;;;20.00;100.00
19831;BME280;10076;52.008;4.708;2023-03-13T11:16:37;99424.00;;;19.80;100.00
19831;BME280;10076;52.008;4.708;2023-03-13T11:19:13;99422.31;;;19.32;100.00
19831;BME280;10076;52.008;4.708;2023-03-13T11:21:53;99423.09;;;18.99;100.00
19831;BME280;10076;52.008;4.708;2023-03-13T11:30:23;99434.97;;;18.42;100.00
19831;BME280;10076;52.008;4.708;2023-03-13T11:33:00;99443.91;;;18.76;100.00
19831;BME280;10076;52.008;4.708;2023-03-13T11:35:39;99465.53;;;18.54;100.00
19831;BME280;10076;52.008;4.708;2023-03-13T11:38:23;99440.88;;;18.37;100.00
19831;BME280;10076;52.008;4.708;2023-03-13T11:41:05;99470.44;;;18.98;100.00
19831;BME280;10076;52.008;4.708;2023-03-13T11:43:40;99453.25;;;20.28;100.00
19831;BME280;10076;52.008;4.708;2023-03-13T11:52:08;99459.94;;;20.83;100.00
19831;BME280;10076;52.008;4.708;2023-03-13T11:54:49;99426.06;;;19.38;100.00
19831;BME280;10076;52.008;4.708;2023-03-13T11:57:23;99434.13;;;18.62;100.00
19831;BME280;10076;52.008;4.708;2023-03-13T12:00:56;99419.84;;;18.76;100.00
19831;BME280;10076;52.008;4.708;2023-03-13T12:02:53;99424.38;;;20.30;100.00
19831;BME280;10076;52.008;4.708;2023-03-13T12:05:21;99409.56;;;20.92;100.00
19831;BME280;10076;52.008;4.708;2023-03-13T12:07:57;99411.41;;;21.11;100.00
19831;BME280;10076;52.008;4.708;2023-03-13T12:10:39;99401.22;;;22.26;100.00
19831;BME280;10076;52.008;4.708;2023-03-13T12:13:31;99419.38;;;21.56;100.00
19831;BME280;10076;52.008;4.708;2023-03-13T12:16:02;99404.19;;;21.05;100.00
19831;BME280;10076;52.008;4.708;2023-03-13T12:18:35;99401.44;;;21.31;100.00
19831;BME280;10076;52.008;4.708;2023-03-13T12:24:13;99400.88;;;21.09;100.00
19831;BME280;10076;52.008;4.708;2023-03-13T12:26:46;99389.28;;;22.22;100.00
19831;BME280;10076;52.008;4.708;2023-03-13T12:37:20;99387.41;;;20.13;100.00
19831;BME280;10076;52.008;4.708;2023-03-13T12:40:00;99395.53;;;19.32;100.00
19831;BME280;10076;52.008;4.708;2023-03-13T12:45:21;99384.59;;;19.21;100.00
19831;BME280;10076;52.008;4.708;2023-03-13T12:59:10;99365.84;;;19.21;100.00
19831;BME280;10076;52.008;4.708;2023-03-13T13:01:41;99360.53;;;18.66;100.00
19831;BME280;10076;52.008;4.708;2023-03-13T13:04:14;99365.47;;;19.83;100.00
19831;BME280;10076;52.008;4.708;2023-03-13T13:07:17;99380.22;;;20.45;100.00
19831;BME280;10076;52.008;4.708;2023-03-13T13:12:36;99389.22;;;21.41;100.00
19831;BME280;10076;52.008;4.708;2023-03-13T13:20:28;99361.16;;;19.82;100.00
19831;BME280;10076;52.008;4.708;2023-03-13T13:22:55;99377.78;;;18.64;100.00
19831;BME280;10076;52.008;4.708;2023-03-13T13:27:52;99343.59;;;19.67;100.00
19831;BME280;10076;52.008;4.708;2023-03-13T13:32:50;99356.53;;;20.42;100.00
19831;BME280;10076;52.008;4.708;2023-03-13T13:37:49;99385.59;;;20.45;100.00
19831;BME280;10076;52.008;4.708;2023-03-13T13:42:48;99336.84;;;18.36;100.00
19831;BME280;10076;52.008;4.708;2023-03-13T13:47:41;99342.41;;;19.82;100.00
19831;BME280;10076;52.008;4.708;2023-03-13T13:50:23;99317.53;;;20.20;100.00
19831;BME280;10076;52.008;4.708;2023-03-13T13:52:50;99316.94;;;20.31;100.00
19831;BME280;10076;52.008;4.708;2023-03-13T13:57:58;99298.16;;;20.18;100.00
19831;BME280;10076;52.008;4.708;2023-03-13T14:00:25;99328.47;;;20.13;100.00
19831;BME280;10076;52.008;4.708;2023-03-13T14:02:55;99313.44;;;21.33;100.00
19831;BME280;10076;52.008;4.708;2023-03-13T14:05:25;99301.31;;;21.98;100.00
19831;BME280;10076;52.008;4.708;2023-03-13T14:07:59;99300.00;;;21.33;100.00
19831;BME280;10076;52.008;4.708;2023-03-13T14:10:40;99301.59;;;21.53;100.00
19831;BME280;10076;52.008;4.708;2023-03-13T14:13:18;99288.13;;;21.90;100.00
19831;BME280;10076;52.008;4.708;2023-03-13T14:15:48;99295.47;;;21.27;100.00
19831;BME280;10076;52.008;4.708;2023-03-13T14:18:24;99293.13;;;21.87;100.00
19831;BME280;10076;52.008;4.708;2023-03-13T14:20:53;99281.25;;;22.74;100.00